Map

Track Data

SID SEASON NUMBER BASIN SUBBASIN NAME ISO_TIME NATURE LAT LON WMO_WIND WMO_PRES WMO_AGENCY TRACK_TYPE DIST2LAND LANDFALL IFLAG USA_AGENCY USA_ATCF_ID USA_LAT USA_LON USA_RECORD USA_STATUS USA_WIND USA_PRES USA_SSHS USA_R34_NE USA_R34_SE USA_R34_SW USA_R34_NW USA_R50_NE USA_R50_SE USA_R50_SW USA_R50_NW USA_R64_NE USA_R64_SE USA_R64_SW USA_R64_NW USA_POCI USA_ROCI USA_RMW USA_EYE TOKYO_LAT TOKYO_LON TOKYO_GRADE TOKYO_WIND TOKYO_PRES TOKYO_R50_DIR TOKYO_R50_LONG TOKYO_R50_SHORT TOKYO_R30_DIR TOKYO_R30_LONG TOKYO_R30_SHORT TOKYO_LAND CMA_LAT CMA_LON CMA_CAT CMA_WIND CMA_PRES HKO_LAT HKO_LON HKO_CAT HKO_WIND HKO_PRES NEWDELHI_LAT NEWDELHI_LON NEWDELHI_GRADE NEWDELHI_WIND NEWDELHI_PRES NEWDELHI_CI NEWDELHI_DP NEWDELHI_POCI REUNION_LAT REUNION_LON REUNION_TYPE REUNION_WIND REUNION_PRES REUNION_TNUM REUNION_CI REUNION_RMW REUNION_R34_NE REUNION_R34_SE REUNION_R34_SW REUNION_R34_NW REUNION_R50_NE REUNION_R50_SE REUNION_R50_SW REUNION_R50_NW REUNION_R64_NE REUNION_R64_SE REUNION_R64_SW REUNION_R64_NW BOM_LAT BOM_LON BOM_TYPE BOM_WIND BOM_PRES BOM_TNUM BOM_CI BOM_RMW BOM_R34_NE BOM_R34_SE BOM_R34_SW BOM_R34_NW BOM_R50_NE BOM_R50_SE BOM_R50_SW BOM_R50_NW BOM_R64_NE BOM_R64_SE BOM_R64_SW BOM_R64_NW BOM_ROCI BOM_POCI BOM_EYE BOM_POS_METHOD BOM_PRES_METHOD NADI_LAT NADI_LON NADI_CAT NADI_WIND NADI_PRES WELLINGTON_LAT WELLINGTON_LON WELLINGTON_WIND WELLINGTON_PRES DS824_LAT DS824_LON DS824_STAGE DS824_WIND DS824_PRES TD9636_LAT TD9636_LON TD9636_STAGE TD9636_WIND TD9636_PRES TD9635_LAT TD9635_LON TD9635_WIND TD9635_PRES TD9635_ROCI NEUMANN_LAT NEUMANN_LON NEUMANN_CLASS NEUMANN_WIND NEUMANN_PRES MLC_LAT MLC_LON MLC_CLASS MLC_WIND MLC_PRES USA_GUST BOM_GUST BOM_GUST_PER REUNION_GUST REUNION_GUST_PER USA_SEAHGT USA_SEARAD_NE USA_SEARAD_SE USA_SEARAD_SW USA_SEARAD_NW STORM_SPEED STORM_DIR
2000175N09340 2000 40 NA NA NOT_NAMED 2000-06-23 00:00:00 TS 9.50000 -19.8000 25 1010 hurdat_atl main 461 461 O_____________ hurdat_atl AL022000 9.50000 -19.8000 TD 25 1010 -1 11 273
2000175N09340 2000 40 NA NA NOT_NAMED 2000-06-23 03:00:00 TS 9.53014 -20.3675 main 510 510 P_____________ AL022000 9.53014 -20.3675 TD 27 1009 -1 12 275
2000175N09340 2000 40 NA NA NOT_NAMED 2000-06-23 06:00:00 TS 9.60000 -21.0000 30 1009 hurdat_atl main 555 555 O_____________ hurdat_atl AL022000 9.60000 -21.0000 TD 30 1009 -1 14 279
2000175N09340 2000 40 NA NA NOT_NAMED 2000-06-23 09:00:00 TS 9.73484 -21.7475 main 614 614 P_____________ AL022000 9.73484 -21.7475 TD 30 1009 -1 16 281
2000175N09340 2000 40 NA NA NOT_NAMED 2000-06-23 12:00:00 TS 9.90000 -22.6000 30 1009 hurdat_atl main 692 692 O_____________ hurdat_atl AL022000 9.90000 -22.6000 TD 30 1009 -1 18 281
2000175N09340 2000 40 NA NA NOT_NAMED 2000-06-23 15:00:00 TS 10.0800 -23.5423 main 775 775 P_____________ AL022000 10.0800 -23.5423 TD 30 1009 -1 19 279
2000175N09340 2000 40 NA NA NOT_NAMED 2000-06-23 18:00:00 TS 10.2000 -24.5000 30 1009 hurdat_atl main 875 875 O_____________ hurdat_atl AL022000 10.2000 -24.5000 TD 30 1009 -1 18 273
2000175N09340 2000 40 NA NA NOT_NAMED 2000-06-23 21:00:00 TS 10.1872 -25.3726 main 970 970 P_____________ AL022000 10.1872 -25.3726 TD 30 1009 -1 17 267
2000175N09340 2000 40 NA NA NOT_NAMED 2000-06-24 00:00:00 TS 10.1000 -26.2000 30 1009 hurdat_atl main 1057 1057 O_____________ hurdat_atl AL022000 10.1000 -26.2000 TD 30 1009 -1 16 263
2000175N09340 2000 40 NA NA NOT_NAMED 2000-06-24 03:00:00 TS 9.99231 -27.0151 main 1145 1145 P_____________ AL022000 9.99231 -27.0151 TD 30 1009 -1 16 263
2000175N09340 2000 40 NA NA NOT_NAMED 2000-06-24 06:00:00 TS 9.90000 -27.8000 30 1009 hurdat_atl main 1232 1232 O_____________ hurdat_atl AL022000 9.90000 -27.8000 TD 30 1009 -1 16 266
2000175N09340 2000 40 NA NA NOT_NAMED 2000-06-24 09:00:00 TS 9.87007 -28.6099 main 1318 1318 P_____________ AL022000 9.87007 -28.6099 TD 30 1009 -1 15 270
2000175N09340 2000 40 NA NA NOT_NAMED 2000-06-24 12:00:00 TS 9.90000 -29.3000 30 1009 hurdat_atl main 1390 1390 O_____________ hurdat_atl AL022000 9.90000 -29.3000 TD 30 1009 -1 10 277
2000175N09340 2000 40 NA NA NOT_NAMED 2000-06-24 15:00:00 TS 9.99892 -29.6250 main 1416 1416 P_____________ AL022000 9.99892 -29.6250 TD 30 1009 -1 8 284
2000175N09340 2000 40 NA NA NOT_NAMED 2000-06-24 18:00:00 TS 10.1000 -30.1000 30 1009 hurdat_atl main 1462 1462 O_____________ hurdat_atl AL022000 10.1000 -30.1000 TD 30 1009 -1 16 274
2000175N09340 2000 40 NA NA NOT_NAMED 2000-06-24 21:00:00 TS 10.1238 -31.2901 main 1585 1585 P_____________ AL022000 10.1238 -31.2901 TD 30 1009 -1 25 270
2000175N09340 2000 40 NA NA NOT_NAMED 2000-06-25 00:00:00 TS 10.1000 -32.6000 30 1009 hurdat_atl main 1660 1620 O_____________ hurdat_atl AL022000 10.1000 -32.6000 TD 30 1009 -1 21 268
2000175N09340 2000 40 NA NA NOT_NAMED 2000-06-25 03:00:00 TS 10.0640 -33.4374 main 1620 1573 P_____________ AL022000 10.0640 -33.4374 TD 30 1008 -1 16 266
2000175N09340 2000 40 NA NA NOT_NAMED 2000-06-25 06:00:00 TS 10.0000 -34.2000 30 1008 hurdat_atl main 1573 1525 O_____________ hurdat_atl AL022000 10.0000 -34.2000 TD 30 1008 -1 17 265
2000175N09340 2000 40 NA NA NOT_NAMED 2000-06-25 09:00:00 TS 9.89995 -35.1701 main 1522 1481 P_____________ AL022000 9.89995 -35.1701 TD 30 1008 -1 20 264
2000175N09340 2000 40 NA NA NOT_NAMED 2000-06-25 12:00:00 TS 9.80000 -36.2000 30 1009 hurdat_atl main 1477 1441 O_____________ hurdat_atl AL022000 9.80000 -36.2000 TD 30 1009 -1 20 265
2000175N09340 2000 40 NA NA NOT_NAMED 2000-06-25 15:00:00 TS 9.73794 -37.2099 main 1441 1424 P_____________ AL022000 9.73794 -37.2099 TD 27 1009 -1 20 267
2000175N09340 2000 40 NA NA NOT_NAMED 2000-06-25 18:00:00 TS 9.70000 -38.2000 25 1010 hurdat_atl main 1422 O_____________ hurdat_atl AL022000 9.70000 -38.2000 TD 25 1010 -1 20 268

About IBTrACS Database

This database is a web-friendly format of International Best Track Archive for Climate Stewardship (IBTrACS), a global best track data archive curated by NOAA dating back to 1842.

Updated: 2021-10-21